sensor_id;sensor_type;location;lat;lon;timestamp;temperature;humidity
76470;DHT22;65305;52.870;13.660;2023-05-18T00:02:04;14.50;62.60
76470;DHT22;65305;52.870;13.660;2023-05-18T00:04:32;14.60;62.70
76470;DHT22;65305;52.870;13.660;2023-05-18T00:06:59;14.60;62.60
76470;DHT22;65305;52.870;13.660;2023-05-18T00:09:30;14.60;62.60
76470;DHT22;65305;52.870;13.660;2023-05-18T00:11:57;14.60;62.50
76470;DHT22;65305;52.870;13.660;2023-05-18T00:14:24;14.70;62.60
76470;DHT22;65305;52.870;13.660;2023-05-18T00:16:50;14.70;62.60
76470;DHT22;65305;52.870;13.660;2023-05-18T00:19:20;14.70;63.00
76470;DHT22;65305;52.870;13.660;2023-05-18T00:21:47;14.70;63.30
76470;DHT22;65305;52.870;13.660;2023-05-18T00:24:14;14.80;63.20
76470;DHT22;65305;52.870;13.660;2023-05-18T00:26:41;14.80;63.00
76470;DHT22;65305;52.870;13.660;2023-05-18T00:29:08;14.80;62.90
76470;DHT22;65305;52.870;13.660;2023-05-18T00:31:35;14.90;63.10
76470;DHT22;65305;52.870;13.660;2023-05-18T00:34:03;14.90;62.80
76470;DHT22;65305;52.870;13.660;2023-05-18T00:36:30;14.90;62.90
76470;DHT22;65305;52.870;13.660;2023-05-18T00:38:57;14.90;62.40
76470;DHT22;65305;52.870;13.660;2023-05-18T00:41:24;14.90;62.60
76470;DHT22;65305;52.870;13.660;2023-05-18T00:43:54;15.00;62.40
76470;DHT22;65305;52.870;13.660;2023-05-18T00:46:21;15.00;62.50
76470;DHT22;65305;52.870;13.660;2023-05-18T00:48:47;15.00;62.30
76470;DHT22;65305;52.870;13.660;2023-05-18T00:51:15;15.00;62.90
76470;DHT22;65305;52.870;13.660;2023-05-18T00:53:42;15.00;63.40
76470;DHT22;65305;52.870;13.660;2023-05-18T00:56:09;15.00;63.40
76470;DHT22;65305;52.870;13.660;2023-05-18T00:58:37;15.10;63.30
76470;DHT22;65305;52.870;13.660;2023-05-18T01:01:03;15.10;63.50
76470;DHT22;65305;52.870;13.660;2023-05-18T01:03:37;15.20;63.40
76470;DHT22;65305;52.870;13.660;2023-05-18T01:06:04;15.20;63.50
76470;DHT22;65305;52.870;13.660;2023-05-18T01:08:30;15.20;63.30
76470;DHT22;65305;52.870;13.660;2023-05-18T01:11:10;15.30;63.20
76470;DHT22;65305;52.870;13.660;2023-05-18T01:13:46;15.30;63.30
76470;DHT22;65305;52.870;13.660;2023-05-18T01:16:16;15.30;63.10
76470;DHT22;65305;52.870;13.660;2023-05-18T01:18:51;15.30;63.30
76470;DHT22;65305;52.870;13.660;2023-05-18T01:25:11;15.40;63.00
76470;DHT22;65305;52.870;13.660;2023-05-18T01:27:07;15.40;63.20
76470;DHT22;65305;52.870;13.660;2023-05-18T01:29:34;15.40;63.60
76470;DHT22;65305;52.870;13.660;2023-05-18T01:32:01;15.50;63.20
76470;DHT22;65305;52.870;13.660;2023-05-18T01:34:32;15.50;63.30
76470;DHT22;65305;52.870;13.660;2023-05-18T01:36:59;15.50;63.70
76470;DHT22;65305;52.870;13.660;2023-05-18T01:39:26;15.50;63.90
76470;DHT22;65305;52.870;13.660;2023-05-18T01:42:00;15.60;63.80
76470;DHT22;65305;52.870;13.660;2023-05-18T01:44:46;15.60;64.00
76470;DHT22;65305;52.870;13.660;2023-05-18T01:47:16;15.60;63.80
76470;DHT22;65305;52.870;13.660;2023-05-18T01:52:10;15.60;63.90
76470;DHT22;65305;52.870;13.660;2023-05-18T01:54:40;15.60;64.00
76470;DHT22;65305;52.870;13.660;2023-05-18T01:57:08;15.60;64.00
76470;DHT22;65305;52.870;13.660;2023-05-18T01:59:35;15.70;64.10
76470;DHT22;65305;52.870;13.660;2023-05-18T02:02:02;15.70;64.10
76470;DHT22;65305;52.870;13.660;2023-05-18T02:04:29;15.80;64.10
76470;DHT22;65305;52.870;13.660;2023-05-18T02:06:55;15.80;63.90
76470;DHT22;65305;52.870;13.660;2023-05-18T02:09:22;15.80;63.80
76470;DHT22;65305;52.870;13.660;2023-05-18T02:11:49;15.80;64.00
76470;DHT22;65305;52.870;13.660;2023-05-18T02:14:15;15.80;63.50
76470;DHT22;65305;52.870;13.660;2023-05-18T02:16:42;15.80;63.90
76470;DHT22;65305;52.870;13.660;2023-05-18T02:19:12;15.90;64.20
76470;DHT22;65305;52.870;13.660;2023-05-18T02:21:39;16.00;64.60
76470;DHT22;65305;52.870;13.660;2023-05-18T02:24:09;16.00;64.10
76470;DHT22;65305;52.870;13.660;2023-05-18T02:26:35;16.00;64.60
76470;DHT22;65305;52.870;13.660;2023-05-18T02:29:02;16.00;64.40
76470;DHT22;65305;52.870;13.660;2023-05-18T02:31:31;16.00;64.50
76470;DHT22;65305;52.870;13.660;2023-05-18T02:33:57;16.00;64.50
76470;DHT22;65305;52.870;13.660;2023-05-18T02:36:24;16.00;64.50
76470;DHT22;65305;52.870;13.660;2023-05-18T02:38:50;16.00;64.40
76470;DHT22;65305;52.870;13.660;2023-05-18T02:41:17;16.10;64.80
76470;DHT22;65305;52.870;13.660;2023-05-18T02:43:43;16.10;64.90
76470;DHT22;65305;52.870;13.660;2023-05-18T02:46:10;16.10;65.10
76470;DHT22;65305;52.870;13.660;2023-05-18T02:48:36;16.20;64.80
76470;DHT22;65305;52.870;13.660;2023-05-18T02:51:03;16.20;65.20
76470;DHT22;65305;52.870;13.660;2023-05-18T02:53:29;16.20;65.30
76470;DHT22;65305;52.870;13.660;2023-05-18T02:55:56;16.20;65.10
76470;DHT22;65305;52.870;13.660;2023-05-18T02:58:23;16.20;65.20
76470;DHT22;65305;52.870;13.660;2023-05-18T03:00:50;16.20;65.10
76470;DHT22;65305;52.870;13.660;2023-05-18T03:03:20;16.30;64.80
76470;DHT22;65305;52.870;13.660;2023-05-18T03:05:48;16.30;65.10
76470;DHT22;65305;52.870;13.660;2023-05-18T03:08:21;16.40;65.00
76470;DHT22;65305;52.870;13.660;2023-05-18T03:10:48;16.40;64.70
76470;DHT22;65305;52.870;13.660;2023-05-18T03:13:15;16.40;65.10
76470;DHT22;65305;52.870;13.660;2023-05-18T03:15:41;16.40;64.70
76470;DHT22;65305;52.870;13.660;2023-05-18T03:18:10;16.40;64.60
76470;DHT22;65305;52.870;13.660;2023-05-18T03:20:37;16.40;64.70
76470;DHT22;65305;52.870;13.660;2023-05-18T03:23:04;16.40;64.60
76470;DHT22;65305;52.870;13.660;2023-05-18T03:25:30;16.50;64.90
76470;DHT22;65305;52.870;13.660;2023-05-18T03:27:58;16.50;64.70
76470;DHT22;65305;52.870;13.660;2023-05-18T03:30:24;16.50;64.60
76470;DHT22;65305;52.870;13.660;2023-05-18T03:32:51;16.50;64.40
76470;DHT22;65305;52.870;13.660;2023-05-18T03:35:17;16.50;64.30
76470;DHT22;65305;52.870;13.660;2023-05-18T03:37:44;16.50;64.30
76470;DHT22;65305;52.870;13.660;2023-05-18T03:40:11;16.60;64.30
76470;DHT22;65305;52.870;13.660;2023-05-18T03:42:38;16.60;64.20
76470;DHT22;65305;52.870;13.660;2023-05-18T03:45:06;16.60;64.10
76470;DHT22;65305;52.870;13.660;2023-05-18T03:47:33;16.60;64.30
76470;DHT22;65305;52.870;13.660;2023-05-18T03:49:59;16.70;64.40
76470;DHT22;65305;52.870;13.660;2023-05-18T03:52:26;16.70;64.30
76470;DHT22;65305;52.870;13.660;2023-05-18T03:54:55;16.70;64.20
76470;DHT22;65305;52.870;13.660;2023-05-18T03:57:22;16.70;64.40
76470;DHT22;65305;52.870;13.660;2023-05-18T03:59:48;16.70;64.30
76470;DHT22;65305;52.870;13.660;2023-05-18T04:02:15;16.70;64.50
76470;DHT22;65305;52.870;13.660;2023-05-18T04:04:42;16.80;64.40
76470;DHT22;65305;52.870;13.660;2023-05-18T04:07:14;16.80;64.50
76470;DHT22;65305;52.870;13.660;2023-05-18T04:09:47;16.80;64.50
76470;DHT22;65305;52.870;13.660;2023-05-18T04:12:17;16.80;64.50
76470;DHT22;65305;52.870;13.660;2023-05-18T04:14:44;16.80;64.40
76470;DHT22;65305;52.870;13.660;2023-05-18T04:17:18;16.80;64.40
76470;DHT22;65305;52.870;13.660;2023-05-18T04:19:48;16.90;64.30
76470;DHT22;65305;52.870;13.660;2023-05-18T04:22:15;16.90;64.20
76470;DHT22;65305;52.870;13.660;2023-05-18T04:24:42;16.90;64.00
76470;DHT22;65305;52.870;13.660;2023-05-18T04:27:11;16.90;64.20
76470;DHT22;65305;52.870;13.660;2023-05-18T04:29:37;17.00;64.20
76470;DHT22;65305;52.870;13.660;2023-05-18T04:32:07;17.00;64.00
76470;DHT22;65305;52.870;13.660;2023-05-18T04:34:35;17.00;63.50
76470;DHT22;65305;52.870;13.660;2023-05-18T04:37:02;17.00;63.40
76470;DHT22;65305;52.870;13.660;2023-05-18T04:39:33;17.00;63.20
76470;DHT22;65305;52.870;13.660;2023-05-18T04:42:00;17.00;63.40
76470;DHT22;65305;52.870;13.660;2023-05-18T04:44:30;17.00;63.70
76470;DHT22;65305;52.870;13.660;2023-05-18T04:46:58;17.00;63.80
76470;DHT22;65305;52.870;13.660;2023-05-18T04:49:25;17.10;63.90
76470;DHT22;65305;52.870;13.660;2023-05-18T04:51:53;17.10;64.00
76470;DHT22;65305;52.870;13.660;2023-05-18T04:54:24;17.10;63.90
76470;DHT22;65305;52.870;13.660;2023-05-18T04:56:51;17.10;63.90
76470;DHT22;65305;52.870;13.660;2023-05-18T04:59:18;17.20;63.70
76470;DHT22;65305;52.870;13.660;2023-05-18T05:01:44;17.20;63.90
76470;DHT22;65305;52.870;13.660;2023-05-18T05:04:11;17.20;63.70
76470;DHT22;65305;52.870;13.660;2023-05-18T05:06:38;17.20;63.50
76470;DHT22;65305;52.870;13.660;2023-05-18T05:09:05;17.20;63.80
76470;DHT22;65305;52.870;13.660;2023-05-18T05:11:32;17.20;63.70
76470;DHT22;65305;52.870;13.660;2023-05-18T05:13:58;17.20;63.70
76470;DHT22;65305;52.870;13.660;2023-05-18T05:16:25;17.30;63.40
76470;DHT22;65305;52.870;13.660;2023-05-18T05:18:51;17.30;63.60
76470;DHT22;65305;52.870;13.660;2023-05-18T05:21:18;17.30;63.60
76470;DHT22;65305;52.870;13.660;2023-05-18T05:23:44;17.30;63.70
76470;DHT22;65305;52.870;13.660;2023-05-18T05:26:11;17.50;64.70
76470;DHT22;65305;52.870;13.660;2023-05-18T05:28:37;17.60;63.80
76470;DHT22;65305;52.870;13.660;2023-05-18T05:31:04;17.60;63.20
76470;DHT22;65305;52.870;13.660;2023-05-18T05:33:31;17.50;62.70
76470;DHT22;65305;52.870;13.660;2023-05-18T05:35:57;17.50;63.10
76470;DHT22;65305;52.870;13.660;2023-05-18T05:38:24;17.50;63.30
76470;DHT22;65305;52.870;13.660;2023-05-18T05:40:51;17.50;63.20
76470;DHT22;65305;52.870;13.660;2023-05-18T05:43:17;17.50;63.30
76470;DHT22;65305;52.870;13.660;2023-05-18T05:45:44;17.50;63.30
76470;DHT22;65305;52.870;13.660;2023-05-18T05:48:10;17.50;63.70
76470;DHT22;65305;52.870;13.660;2023-05-18T05:50:37;17.50;63.70
76470;DHT22;65305;52.870;13.660;2023-05-18T05:53:03;17.50;64.10
76470;DHT22;65305;52.870;13.660;2023-05-18T05:55:30;17.50;63.80
76470;DHT22;65305;52.870;13.660;2023-05-18T05:57:56;17.50;62.80
76470;DHT22;65305;52.870;13.660;2023-05-18T06:00:23;17.50;62.50
76470;DHT22;65305;52.870;13.660;2023-05-18T06:02:50;17.50;62.10
76470;DHT22;65305;52.870;13.660;2023-05-18T06:05:16;17.50;61.50
76470;DHT22;65305;52.870;13.660;2023-05-18T06:07:43;17.50;61.80
76470;DHT22;65305;52.870;13.660;2023-05-18T06:10:09;17.50;62.10
76470;DHT22;65305;52.870;13.660;2023-05-18T06:12:36;17.50;62.10
76470;DHT22;65305;52.870;13.660;2023-05-18T06:15:02;17.40;62.10
76470;DHT22;65305;52.870;13.660;2023-05-18T06:17:29;17.40;62.10
76470;DHT22;65305;52.870;13.660;2023-05-18T06:19:55;17.40;61.90
76470;DHT22;65305;52.870;13.660;2023-05-18T06:22:22;17.40;61.20
76470;DHT22;65305;52.870;13.660;2023-05-18T06:24:49;17.40;61.20
76470;DHT22;65305;52.870;13.660;2023-05-18T06:27:15;17.30;61.50
76470;DHT22;65305;52.870;13.660;2023-05-18T06:29:42;17.30;61.30
76470;DHT22;65305;52.870;13.660;2023-05-18T06:32:08;17.30;61.20
76470;DHT22;65305;52.870;13.660;2023-05-18T06:34:35;17.30;61.10
76470;DHT22;65305;52.870;13.660;2023-05-18T06:37:02;17.30;61.00
76470;DHT22;65305;52.870;13.660;2023-05-18T06:39:29;17.20;60.80
76470;DHT22;65305;52.870;13.660;2023-05-18T06:41:55;17.20;60.80
76470;DHT22;65305;52.870;13.660;2023-05-18T06:44:22;17.20;60.70
76470;DHT22;65305;52.870;13.660;2023-05-18T06:46:48;17.20;60.50
